sensor_id;sensor_type;location;lat;lon;timestamp;temperature;humidity
42147;DHT22;27815;43.410;11.852;2023-05-19T00:00:41;16.40;59.30
42147;DHT22;27815;43.410;11.852;2023-05-19T00:04:49;16.30;59.60
42147;DHT22;27815;43.410;11.852;2023-05-19T00:09:09;16.30;59.70
42147;DHT22;27815;43.410;11.852;2023-05-19T00:13:13;16.30;60.10
42147;DHT22;27815;43.410;11.852;2023-05-19T00:17:16;16.20;59.90
42147;DHT22;27815;43.410;11.852;2023-05-19T00:21:19;16.30;60.10
42147;DHT22;27815;43.410;11.852;2023-05-19T00:25:22;16.30;60.30
42147;DHT22;27815;43.410;11.852;2023-05-19T00:29:25;16.20;60.40
42147;DHT22;27815;43.410;11.852;2023-05-19T00:33:28;16.20;60.80
42147;DHT22;27815;43.410;11.852;2023-05-19T00:37:30;16.20;61.00
42147;DHT22;27815;43.410;11.852;2023-05-19T00:41:33;16.20;61.20
42147;DHT22;27815;43.410;11.852;2023-05-19T00:45:38;16.20;61.40
42147;DHT22;27815;43.410;11.852;2023-05-19T00:49:52;16.00;62.00
42147;DHT22;27815;43.410;11.852;2023-05-19T00:53:55;16.00;62.50
42147;DHT22;27815;43.410;11.852;2023-05-19T00:57:58;15.80;62.60
42147;DHT22;27815;43.410;11.852;2023-05-19T01:02:03;15.60;62.90
42147;DHT22;27815;43.410;11.852;2023-05-19T01:06:06;15.40;63.30
42147;DHT22;27815;43.410;11.852;2023-05-19T01:10:10;15.20;63.40
42147;DHT22;27815;43.410;11.852;2023-05-19T01:14:14;15.10;64.40
42147;DHT22;27815;43.410;11.852;2023-05-19T01:18:24;15.00;66.00
42147;DHT22;27815;43.410;11.852;2023-05-19T01:31:03;14.70;66.60
42147;DHT22;27815;43.410;11.852;2023-05-19T01:35:08;14.70;66.70
42147;DHT22;27815;43.410;11.852;2023-05-19T01:39:12;14.70;67.00
42147;DHT22;27815;43.410;11.852;2023-05-19T01:43:23;14.80;67.00
42147;DHT22;27815;43.410;11.852;2023-05-19T01:47:28;14.70;67.50
42147;DHT22;27815;43.410;11.852;2023-05-19T01:51:31;14.60;67.40
42147;DHT22;27815;43.410;11.852;2023-05-19T01:55:37;14.60;67.40
42147;DHT22;27815;43.410;11.852;2023-05-19T02:00:09;14.60;67.60
42147;DHT22;27815;43.410;11.852;2023-05-19T02:04:46;14.60;68.20
42147;DHT22;27815;43.410;11.852;2023-05-19T02:14:29;14.50;68.60
42147;DHT22;27815;43.410;11.852;2023-05-19T02:18:33;14.50;68.80
42147;DHT22;27815;43.410;11.852;2023-05-19T02:22:36;14.40;69.20
42147;DHT22;27815;43.410;11.852;2023-05-19T02:26:41;14.30;69.30
42147;DHT22;27815;43.410;11.852;2023-05-19T02:30:44;14.40;69.30
42147;DHT22;27815;43.410;11.852;2023-05-19T02:34:47;14.20;69.40
42147;DHT22;27815;43.410;11.852;2023-05-19T02:38:49;14.00;69.80
42147;DHT22;27815;43.410;11.852;2023-05-19T02:42:52;14.00;70.00
42147;DHT22;27815;43.410;11.852;2023-05-19T02:46:55;13.80;70.40
42147;DHT22;27815;43.410;11.852;2023-05-19T02:50:58;13.70;70.70
42147;DHT22;27815;43.410;11.852;2023-05-19T02:55:01;13.60;71.00
42147;DHT22;27815;43.410;11.852;2023-05-19T02:59:04;13.60;70.90
42147;DHT22;27815;43.410;11.852;2023-05-19T03:03:07;13.50;71.10
42147;DHT22;27815;43.410;11.852;2023-05-19T03:07:12;13.50;71.20
42147;DHT22;27815;43.410;11.852;2023-05-19T03:11:15;13.50;71.40
42147;DHT22;27815;43.410;11.852;2023-05-19T03:15:18;13.40;71.60
42147;DHT22;27815;43.410;11.852;2023-05-19T03:19:22;13.40;71.80
42147;DHT22;27815;43.410;11.852;2023-05-19T03:23:25;13.40;72.00
42147;DHT22;27815;43.410;11.852;2023-05-19T03:27:28;13.30;72.20
42147;DHT22;27815;43.410;11.852;2023-05-19T03:31:31;13.30;72.20
42147;DHT22;27815;43.410;11.852;2023-05-19T03:35:34;13.30;72.10
42147;DHT22;27815;43.410;11.852;2023-05-19T03:39:37;13.30;72.20
42147;DHT22;27815;43.410;11.852;2023-05-19T03:43:41;13.30;72.20
42147;DHT22;27815;43.410;11.852;2023-05-19T03:47:44;13.30;72.30
42147;DHT22;27815;43.410;11.852;2023-05-19T03:52:11;13.40;72.40
42147;DHT22;27815;43.410;11.852;2023-05-19T03:56:27;13.40;72.30
42147;DHT22;27815;43.410;11.852;2023-05-19T04:00:30;13.40;72.30
42147;DHT22;27815;43.410;11.852;2023-05-19T04:04:34;13.50;72.30
42147;DHT22;27815;43.410;11.852;2023-05-19T04:08:40;13.50;72.20
42147;DHT22;27815;43.410;11.852;2023-05-19T04:12:43;13.50;72.10
42147;DHT22;27815;43.410;11.852;2023-05-19T04:16:46;13.50;72.00
42147;DHT22;27815;43.410;11.852;2023-05-19T04:20:49;13.50;72.00
42147;DHT22;27815;43.410;11.852;2023-05-19T04:24:54;13.50;72.10
42147;DHT22;27815;43.410;11.852;2023-05-19T04:28:59;13.50;72.30
42147;DHT22;27815;43.410;11.852;2023-05-19T04:33:03;13.50;72.50
42147;DHT22;27815;43.410;11.852;2023-05-19T04:37:07;13.50;72.70
42147;DHT22;27815;43.410;11.852;2023-05-19T04:41:13;13.50;72.80
42147;DHT22;27815;43.410;11.852;2023-05-19T04:45:18;13.50;72.70
42147;DHT22;27815;43.410;11.852;2023-05-19T04:49:25;13.60;72.70
42147;DHT22;27815;43.410;11.852;2023-05-19T04:53:28;13.70;72.60
42147;DHT22;27815;43.410;11.852;2023-05-19T04:57:33;13.70;72.40
42147;DHT22;27815;43.410;11.852;2023-05-19T05:01:36;13.80;72.40
42147;DHT22;27815;43.410;11.852;2023-05-19T05:05:44;13.80;72.20
42147;DHT22;27815;43.410;11.852;2023-05-19T05:09:51;13.90;72.20
42147;DHT22;27815;43.410;11.852;2023-05-19T05:13:54;14.00;72.10
42147;DHT22;27815;43.410;11.852;2023-05-19T05:18:02;14.00;72.10
42147;DHT22;27815;43.410;11.852;2023-05-19T05:22:07;14.00;72.10
42147;DHT22;27815;43.410;11.852;2023-05-19T05:26:18;14.00;72.10
42147;DHT22;27815;43.410;11.852;2023-05-19T05:30:23;14.10;72.30
42147;DHT22;27815;43.410;11.852;2023-05-19T05:34:27;14.00;72.30
42147;DHT22;27815;43.410;11.852;2023-05-19T05:38:30;14.00;72.50
42147;DHT22;27815;43.410;11.852;2023-05-19T05:42:34;14.00;72.60
42147;DHT22;27815;43.410;11.852;2023-05-19T05:46:37;14.00;72.60
42147;DHT22;27815;43.410;11.852;2023-05-19T05:50:44;14.10;72.60
42147;DHT22;27815;43.410;11.852;2023-05-19T05:54:50;14.20;72.60
42147;DHT22;27815;43.410;11.852;2023-05-19T05:58:55;14.20;72.30
42147;DHT22;27815;43.410;11.852;2023-05-19T06:02:58;14.20;72.60
42147;DHT22;27815;43.410;11.852;2023-05-19T06:07:01;14.10;73.10
42147;DHT22;27815;43.410;11.852;2023-05-19T06:11:08;14.10;73.20
42147;DHT22;27815;43.410;11.852;2023-05-19T06:15:14;14.10;73.00
42147;DHT22;27815;43.410;11.852;2023-05-19T06:19:39;14.00;73.60
42147;DHT22;27815;43.410;11.852;2023-05-19T06:23:42;14.00;74.00
42147;DHT22;27815;43.410;11.852;2023-05-19T06:27:46;14.00;74.10
42147;DHT22;27815;43.410;11.852;2023-05-19T06:31:50;14.10;73.80
42147;DHT22;27815;43.410;11.852;2023-05-19T06:35:53;14.20;73.80
42147;DHT22;27815;43.410;11.852;2023-05-19T06:39:56;14.30;73.90
42147;DHT22;27815;43.410;11.852;2023-05-19T06:44:09;14.40;73.90
42147;DHT22;27815;43.410;11.852;2023-05-19T06:48:13;14.60;73.90
42147;DHT22;27815;43.410;11.852;2023-05-19T06:52:16;14.60;73.50
42147;DHT22;27815;43.410;11.852;2023-05-19T06:56:19;14.80;73.20
42147;DHT22;27815;43.410;11.852;2023-05-19T07:00:25;14.80;73.00
42147;DHT22;27815;43.410;11.852;2023-05-19T07:04:29;14.90;72.70
42147;DHT22;27815;43.410;11.852;2023-05-19T07:08:32;15.00;72.50
42147;DHT22;27815;43.410;11.852;2023-05-19T07:12:38;15.10;72.30
42147;DHT22;27815;43.410;11.852;2023-05-19T07:16:41;15.20;72.10
42147;DHT22;27815;43.410;11.852;2023-05-19T07:20:44;15.30;71.90
42147;DHT22;27815;43.410;11.852;2023-05-19T07:24:47;15.30;71.70
42147;DHT22;27815;43.410;11.852;2023-05-19T07:28:52;15.40;71.60
42147;DHT22;27815;43.410;11.852;2023-05-19T07:32:55;15.50;71.40
42147;DHT22;27815;43.410;11.852;2023-05-19T07:36:58;15.60;71.10
42147;DHT22;27815;43.410;11.852;2023-05-19T07:41:03;15.70;70.90
42147;DHT22;27815;43.410;11.852;2023-05-19T07:45:07;15.90;70.80
42147;DHT22;27815;43.410;11.852;2023-05-19T07:49:12;16.00;70.70
42147;DHT22;27815;43.410;11.852;2023-05-19T07:53:17;16.00;70.60
42147;DHT22;27815;43.410;11.852;2023-05-19T07:57:20;16.00;70.50
42147;DHT22;27815;43.410;11.852;2023-05-19T08:01:23;16.10;70.40
42147;DHT22;27815;43.410;11.852;2023-05-19T08:05:26;16.30;70.30
42147;DHT22;27815;43.410;11.852;2023-05-19T08:09:31;16.30;70.10
42147;DHT22;27815;43.410;11.852;2023-05-19T08:13:34;16.40;70.10
42147;DHT22;27815;43.410;11.852;2023-05-19T08:17:37;16.50;70.00
42147;DHT22;27815;43.410;11.852;2023-05-19T08:21:40;16.60;69.90
42147;DHT22;27815;43.410;11.852;2023-05-19T08:25:52;16.60;69.70
42147;DHT22;27815;43.410;11.852;2023-05-19T08:29:55;16.60;69.80
42147;DHT22;27815;43.410;11.852;2023-05-19T08:33:58;16.70;69.90
42147;DHT22;27815;43.410;11.852;2023-05-19T08:38:01;16.70;70.00
42147;DHT22;27815;43.410;11.852;2023-05-19T08:42:04;16.80;70.00
42147;DHT22;27815;43.410;11.852;2023-05-19T08:46:12;16.80;70.00
42147;DHT22;27815;43.410;11.852;2023-05-19T08:50:23;16.80;70.10
42147;DHT22;27815;43.410;11.852;2023-05-19T08:54:33;16.80;70.00
42147;DHT22;27815;43.410;11.852;2023-05-19T08:58:40;16.90;70.00
42147;DHT22;27815;43.410;11.852;2023-05-19T09:02:47;16.90;69.90
42147;DHT22;27815;43.410;11.852;2023-05-19T09:07:02;16.90;70.00
42147;DHT22;27815;43.410;11.852;2023-05-19T09:11:06;16.80;70.10
42147;DHT22;27815;43.410;11.852;2023-05-19T09:15:09;16.80;70.20
42147;DHT22;27815;43.410;11.852;2023-05-19T09:19:13;16.90;70.30
42147;DHT22;27815;43.410;11.852;2023-05-19T09:23:19;16.80;70.40
42147;DHT22;27815;43.410;11.852;2023-05-19T09:27:22;16.80;70.60
42147;DHT22;27815;43.410;11.852;2023-05-19T09:31:31;16.90;70.50
42147;DHT22;27815;43.410;11.852;2023-05-19T09:35:35;17.00;70.50
42147;DHT22;27815;43.410;11.852;2023-05-19T09:39:38;17.00;70.30
42147;DHT22;27815;43.410;11.852;2023-05-19T09:43:41;17.00;70.30
42147;DHT22;27815;43.410;11.852;2023-05-19T09:47:44;17.10;70.40
42147;DHT22;27815;43.410;11.852;2023-05-19T09:51:55;17.10;70.20
42147;DHT22;27815;43.410;11.852;2023-05-19T09:56:00;17.10;70.60
42147;DHT22;27815;43.410;11.852;2023-05-19T10:00:04;17.20;70.70
42147;DHT22;27815;43.410;11.852;2023-05-19T10:04:18;17.40;70.70
42147;DHT22;27815;43.410;11.852;2023-05-19T10:08:22;17.50;70.20
42147;DHT22;27815;43.410;11.852;2023-05-19T10:12:28;17.50;69.90
42147;DHT22;27815;43.410;11.852;2023-05-19T10:16:32;17.40;70.00
42147;DHT22;27815;43.410;11.852;2023-05-19T10:20:36;17.30;70.00
42147;DHT22;27815;43.410;11.852;2023-05-19T10:24:42;17.20;70.20
42147;DHT22;27815;43.410;11.852;2023-05-19T10:28:45;17.20;70.10
42147;DHT22;27815;43.410;11.852;2023-05-19T10:32:49;17.10;70.20
42147;DHT22;27815;43.410;11.852;2023-05-19T10:37:08;17.10;70.10
42147;DHT22;27815;43.410;11.852;2023-05-19T10:41:46;17.10;70.10
42147;DHT22;27815;43.410;11.852;2023-05-19T10:45:52;17.10;70.00
42147;DHT22;27815;43.410;11.852;2023-05-19T10:49:55;17.00;70.00
42147;DHT22;27815;43.410;11.852;2023-05-19T10:54:02;17.10;70.00
42147;DHT22;27815;43.410;11.852;2023-05-19T10:58:13;17.10;69.90
42147;DHT22;27815;43.410;11.852;2023-05-19T11:02:39;17.10;69.90
42147;DHT22;27815;43.410;11.852;2023-05-19T11:06:50;17.10;69.80
42147;DHT22;27815;43.410;11.852;2023-05-19T11:10:53;17.10;69.90
42147;DHT22;27815;43.410;11.852;2023-05-19T11:14:57;17.20;69.80
42147;DHT22;27815;43.410;11.852;2023-05-19T11:19:01;17.30;69.60
42147;DHT22;27815;43.410;11.852;2023-05-19T11:23:14;17.40;69.50
42147;DHT22;27815;43.410;11.852;2023-05-19T11:27:26;17.40;69.30
42147;DHT22;27815;43.410;11.852;2023-05-19T11:31:30;17.50;69.30
42147;DHT22;27815;43.410;11.852;2023-05-19T11:35:34;17.60;69.30
42147;DHT22;27815;43.410;11.852;2023-05-19T11:39:39;17.70;69.20
42147;DHT22;27815;43.410;11.852;2023-05-19T11:43:42;17.80;68.90
42147;DHT22;27815;43.410;11.852;2023-05-19T11:47:45;17.90;68.90
42147;DHT22;27815;43.410;11.852;2023-05-19T11:52:04;17.90;68.90
42147;DHT22;27815;43.410;11.852;2023-05-19T11:56:07;18.00;68.60
42147;DHT22;27815;43.410;11.852;2023-05-19T12:00:10;18.10;68.40
42147;DHT22;27815;43.410;11.852;2023-05-19T12:04:14;18.20;68.30
42147;DHT22;27815;43.410;11.852;2023-05-19T12:08:17;18.30;68.10
42147;DHT22;27815;43.410;11.852;2023-05-19T12:12:21;18.30;68.10
42147;DHT22;27815;43.410;11.852;2023-05-19T12:16:34;18.40;67.80
42147;DHT22;27815;43.410;11.852;2023-05-19T12:20:37;18.50;68.20
42147;DHT22;27815;43.410;11.852;2023-05-19T12:24:41;18.50;68.00
42147;DHT22;27815;43.410;11.852;2023-05-19T12:28:45;18.60;67.70
42147;DHT22;27815;43.410;11.852;2023-05-19T12:32:48;18.60;67.60
42147;DHT22;27815;43.410;11.852;2023-05-19T12:36:53;18.50;67.70
42147;DHT22;27815;43.410;11.852;2023-05-19T12:40:57;18.50;67.80
42147;DHT22;27815;43.410;11.852;2023-05-19T12:45:02;18.50;67.80
42147;DHT22;27815;43.410;11.852;2023-05-19T12:49:07;18.50;67.90
42147;DHT22;27815;43.410;11.852;2023-05-19T12:53:11;18.50;67.80
42147;DHT22;27815;43.410;11.852;2023-05-19T12:57:19;18.50;67.50
42147;DHT22;27815;43.410;11.852;2023-05-19T13:01:23;18.50;67.30
42147;DHT22;27815;43.410;11.852;2023-05-19T13:05:27;18.50;67.40
42147;DHT22;27815;43.410;11.852;2023-05-19T13:09:30;18.50;67.50
42147;DHT22;27815;43.410;11.852;2023-05-19T13:13:36;18.60;67.50
42147;DHT22;27815;43.410;11.852;2023-05-19T13:17:39;18.80;67.10
42147;DHT22;27815;43.410;11.852;2023-05-19T13:21:42;19.00;66.70
42147;DHT22;27815;43.410;11.852;2023-05-19T13:25:45;19.10;66.60
42147;DHT22;27815;43.410;11.852;2023-05-19T13:29:48;19.30;66.30
42147;DHT22;27815;43.410;11.852;2023-05-19T13:33:51;19.40;65.90
42147;DHT22;27815;43.410;11.852;2023-05-19T13:37:54;19.40;65.60
42147;DHT22;27815;43.410;11.852;2023-05-19T13:41:57;19.40;65.50
42147;DHT22;27815;43.410;11.852;2023-05-19T13:46:00;19.40;65.40
42147;DHT22;27815;43.410;11.852;2023-05-19T13:50:03;19.50;65.10
42147;DHT22;27815;43.410;11.852;2023-05-19T13:54:06;19.40;65.10
42147;DHT22;27815;43.410;11.852;2023-05-19T13:58:09;19.50;65.10
42147;DHT22;27815;43.410;11.852;2023-05-19T14:02:12;19.50;65.00
42147;DHT22;27815;43.410;11.852;2023-05-19T14:06:16;19.50;65.00
42147;DHT22;27815;43.410;11.852;2023-05-19T14:10:19;19.40;64.90
42147;DHT22;27815;43.410;11.852;2023-05-19T14:14:22;19.50;64.80
42147;DHT22;27815;43.410;11.852;2023-05-19T14:18:24;19.50;64.70
42147;DHT22;27815;43.410;11.852;2023-05-19T14:22:28;19.50;64.90
42147;DHT22;27815;43.410;11.852;2023-05-19T14:26:31;19.40;64.90
42147;DHT22;27815;43.410;11.852;2023-05-19T14:30:33;19.40;65.00
42147;DHT22;27815;43.410;11.852;2023-05-19T14:34:37;19.30;65.10
42147;DHT22;27815;43.410;11.852;2023-05-19T14:38:40;19.30;65.00
42147;DHT22;27815;43.410;11.852;2023-05-19T14:42:43;19.20;65.10
42147;DHT22;27815;43.410;11.852;2023-05-19T14:46:45;19.20;65.20
42147;DHT22;27815;43.410;11.852;2023-05-19T14:50:48;19.10;65.50
42147;DHT22;27815;43.410;11.852;2023-05-19T14:54:52;19.10;65.30
42147;DHT22;27815;43.410;11.852;2023-05-19T14:58:54;19.10;65.40
42147;DHT22;27815;43.410;11.852;2023-05-19T15:02:58;19.00;65.50
42147;DHT22;27815;43.410;11.852;2023-05-19T15:07:01;19.00;65.70
42147;DHT22;27815;43.410;11.852;2023-05-19T15:11:06;18.90;65.70
42147;DHT22;27815;43.410;11.852;2023-05-19T15:15:10;18.80;65.80
42147;DHT22;27815;43.410;11.852;2023-05-19T15:19:13;18.70;66.00
42147;DHT22;27815;43.410;11.852;2023-05-19T15:23:36;18.70;66.20
42147;DHT22;27815;43.410;11.852;2023-05-19T15:27:41;18.60;66.30
42147;DHT22;27815;43.410;11.852;2023-05-19T15:31:44;18.50;66.50
42147;DHT22;27815;43.410;11.852;2023-05-19T15:35:49;18.50;66.70
42147;DHT22;27815;43.410;11.852;2023-05-19T15:39:53;18.50;66.70
42147;DHT22;27815;43.410;11.852;2023-05-19T15:43:56;18.50;66.60
42147;DHT22;27815;43.410;11.852;2023-05-19T15:48:02;18.50;66.50
42147;DHT22;27815;43.410;11.852;2023-05-19T15:52:05;18.50;66.50
42147;DHT22;27815;43.410;11.852;2023-05-19T15:56:08;18.60;66.40
42147;DHT22;27815;43.410;11.852;2023-05-19T16:00:11;18.50;66.20
42147;DHT22;27815;43.410;11.852;2023-05-19T16:04:14;18.50;66.20
42147;DHT22;27815;43.410;11.852;2023-05-19T16:08:18;18.50;66.10
42147;DHT22;27815;43.410;11.852;2023-05-19T16:12:21;18.50;66.20
42147;DHT22;27815;43.410;11.852;2023-05-19T16:16:26;18.50;66.10
42147;DHT22;27815;43.410;11.852;2023-05-19T16:20:29;18.40;66.10
42147;DHT22;27815;43.410;11.852;2023-05-19T16:24:32;18.30;66.20
42147;DHT22;27815;43.410;11.852;2023-05-19T16:28:35;18.30;66.20
42147;DHT22;27815;43.410;11.852;2023-05-19T16:32:38;18.30;66.30
42147;DHT22;27815;43.410;11.852;2023-05-19T16:36:45;18.30;66.30
42147;DHT22;27815;43.410;11.852;2023-05-19T16:40:48;18.20;66.30
42147;DHT22;27815;43.410;11.852;2023-05-19T16:44:51;18.10;66.40
42147;DHT22;27815;43.410;11.852;2023-05-19T16:48:55;18.10;66.60
42147;DHT22;27815;43.410;11.852;2023-05-19T16:52:58;18.10;66.60
42147;DHT22;27815;43.410;11.852;2023-05-19T16:57:02;18.10;66.60
42147;DHT22;27815;43.410;11.852;2023-05-19T17:01:05;18.00;66.50
42147;DHT22;27815;43.410;11.852;2023-05-19T17:05:18;18.00;66.60
42147;DHT22;27815;43.410;11.852;2023-05-19T17:09:35;18.00;66.40
42147;DHT22;27815;43.410;11.852;2023-05-19T17:13:38;18.00;66.30
42147;DHT22;27815;43.410;11.852;2023-05-19T17:17:43;18.00;66.30
42147;DHT22;27815;43.410;11.852;2023-05-19T17:21:46;17.90;66.30
42147;DHT22;27815;43.410;11.852;2023-05-19T17:25:53;17.80;66.30
42147;DHT22;27815;43.410;11.852;2023-05-19T17:29:58;17.80;66.50
42147;DHT22;27815;43.410;11.852;2023-05-19T17:34:04;17.70;66.80
42147;DHT22;27815;43.410;11.852;2023-05-19T17:38:07;17.60;67.10
42147;DHT22;27815;43.410;11.852;2023-05-19T17:42:10;17.50;67.50
42147;DHT22;27815;43.410;11.852;2023-05-19T17:46:13;17.40;67.90
42147;DHT22;27815;43.410;11.852;2023-05-19T17:50:16;17.30;68.10
42147;DHT22;27815;43.410;11.852;2023-05-19T17:54:20;17.30;68.40
42147;DHT22;27815;43.410;11.852;2023-05-19T17:58:23;17.20;68.50
42147;DHT22;27815;43.410;11.852;2023-05-19T18:02:26;17.10;68.60
42147;DHT22;27815;43.410;11.852;2023-05-19T18:06:30;17.10;68.70
42147;DHT22;27815;43.410;11.852;2023-05-19T18:10:38;17.10;68.80
42147;DHT22;27815;43.410;11.852;2023-05-19T18:14:42;17.10;69.00
42147;DHT22;27815;43.410;11.852;2023-05-19T18:18:45;17.10;69.00
42147;DHT22;27815;43.410;11.852;2023-05-19T18:22:53;17.00;69.10
42147;DHT22;27815;43.410;11.852;2023-05-19T18:26:56;17.00;69.20
42147;DHT22;27815;43.410;11.852;2023-05-19T18:31:00;17.00;69.30
42147;DHT22;27815;43.410;11.852;2023-05-19T18:35:04;17.00;69.30
42147;DHT22;27815;43.410;11.852;2023-05-19T18:39:08;17.00;69.40
42147;DHT22;27815;43.410;11.852;2023-05-19T18:43:16;17.00;69.40
42147;DHT22;27815;43.410;11.852;2023-05-19T18:47:35;17.00;69.50
42147;DHT22;27815;43.410;11.852;2023-05-19T18:51:41;16.90;69.50
42147;DHT22;27815;43.410;11.852;2023-05-19T18:55:44;16.90;69.50
42147;DHT22;27815;43.410;11.852;2023-05-19T18:59:50;16.90;69.70
42147;DHT22;27815;43.410;11.852;2023-05-19T19:03:56;16.80;69.80
42147;DHT22;27815;43.410;11.852;2023-05-19T19:07:59;16.90;69.90
42147;DHT22;27815;43.410;11.852;2023-05-19T19:12:03;16.80;69.80
42147;DHT22;27815;43.410;11.852;2023-05-19T19:16:08;16.80;69.80
42147;DHT22;27815;43.410;11.852;2023-05-19T19:20:13;16.80;69.90
42147;DHT22;27815;43.410;11.852;2023-05-19T19:24:18;16.80;69.90
42147;DHT22;27815;43.410;11.852;2023-05-19T19:28:22;16.80;70.00
42147;DHT22;27815;43.410;11.852;2023-05-19T19:32:27;16.80;70.10
42147;DHT22;27815;43.410;11.852;2023-05-19T19:36:35;16.80;70.30
42147;DHT22;27815;43.410;11.852;2023-05-19T19:40:38;16.80;70.30
42147;DHT22;27815;43.410;11.852;2023-05-19T19:44:41;16.80;70.40
42147;DHT22;27815;43.410;11.852;2023-05-19T19:48:45;16.70;70.40
42147;DHT22;27815;43.410;11.852;2023-05-19T19:52:51;16.80;70.50
42147;DHT22;27815;43.410;11.852;2023-05-19T19:56:56;16.80;70.50
42147;DHT22;27815;43.410;11.852;2023-05-19T20:01:02;16.80;70.50
42147;DHT22;27815;43.410;11.852;2023-05-19T20:05:06;16.80;70.50
42147;DHT22;27815;43.410;11.852;2023-05-19T20:09:10;16.80;70.50
42147;DHT22;27815;43.410;11.852;2023-05-19T20:13:20;16.80;70.40
42147;DHT22;27815;43.410;11.852;2023-05-19T20:17:24;16.80;70.40
42147;DHT22;27815;43.410;11.852;2023-05-19T20:21:28;16.80;70.50
42147;DHT22;27815;43.410;11.852;2023-05-19T20:25:44;16.80;70.50
42147;DHT22;27815;43.410;11.852;2023-05-19T20:30:18;16.90;70.50
42147;DHT22;27815;43.410;11.852;2023-05-19T20:34:21;16.80;70.40
42147;DHT22;27815;43.410;11.852;2023-05-19T20:38:25;16.80;70.50
42147;DHT22;27815;43.410;11.852;2023-05-19T20:42:29;16.80;70.40
42147;DHT22;27815;43.410;11.852;2023-05-19T20:46:32;16.80;70.30
42147;DHT22;27815;43.410;11.852;2023-05-19T20:50:36;16.90;70.20
42147;DHT22;27815;43.410;11.852;2023-05-19T20:54:44;16.90;70.20
42147;DHT22;27815;43.410;11.852;2023-05-19T20:58:53;16.90;70.30
42147;DHT22;27815;43.410;11.852;2023-05-19T21:02:56;16.80;70.40
42147;DHT22;27815;43.410;11.852;2023-05-19T21:07:00;16.80;70.40
42147;DHT22;27815;43.410;11.852;2023-05-19T21:11:03;16.70;70.60
42147;DHT22;27815;43.410;11.852;2023-05-19T21:15:06;16.70;70.60
42147;DHT22;27815;43.410;11.852;2023-05-19T21:19:09;16.60;70.70
42147;DHT22;27815;43.410;11.852;2023-05-19T21:23:13;16.60;70.80
42147;DHT22;27815;43.410;11.852;2023-05-19T21:27:16;16.60;70.90
42147;DHT22;27815;43.410;11.852;2023-05-19T21:31:18;16.50;71.00
42147;DHT22;27815;43.410;11.852;2023-05-19T21:35:22;16.50;71.20
42147;DHT22;27815;43.410;11.852;2023-05-19T21:39:25;16.50;71.30
42147;DHT22;27815;43.410;11.852;2023-05-19T21:43:28;16.40;71.40
42147;DHT22;27815;43.410;11.852;2023-05-19T21:47:31;16.30;71.40
42147;DHT22;27815;43.410;11.852;2023-05-19T21:51:34;16.30;71.60
42147;DHT22;27815;43.410;11.852;2023-05-19T21:55:39;16.20;71.80
42147;DHT22;27815;43.410;11.852;2023-05-19T21:59:43;16.20;71.90
42147;DHT22;27815;43.410;11.852;2023-05-19T22:03:47;16.10;72.00
42147;DHT22;27815;43.410;11.852;2023-05-19T22:07:50;16.00;72.10
42147;DHT22;27815;43.410;11.852;2023-05-19T22:11:53;16.00;72.20
42147;DHT22;27815;43.410;11.852;2023-05-19T22:15:57;16.00;72.40
42147;DHT22;27815;43.410;11.852;2023-05-19T22:20:00;16.00;72.40
42147;DHT22;27815;43.410;11.852;2023-05-19T22:24:03;16.00;72.40
42147;DHT22;27815;43.410;11.852;2023-05-19T22:28:06;16.00;72.30
42147;DHT22;27815;43.410;11.852;2023-05-19T22:32:09;16.00;72.20
42147;DHT22;27815;43.410;11.852;2023-05-19T22:36:14;16.00;72.10
42147;DHT22;27815;43.410;11.852;2023-05-19T22:40:18;16.00;72.00
42147;DHT22;27815;43.410;11.852;2023-05-19T22:44:21;16.00;72.00
42147;DHT22;27815;43.410;11.852;2023-05-19T22:48:24;15.90;72.00
42147;DHT22;27815;43.410;11.852;2023-05-19T22:52:26;15.90;72.00
42147;DHT22;27815;43.410;11.852;2023-05-19T22:56:29;15.80;71.90
42147;DHT22;27815;43.410;11.852;2023-05-19T23:00:32;15.80;71.90
42147;DHT22;27815;43.410;11.852;2023-05-19T23:04:36;15.80;71.70
42147;DHT22;27815;43.410;11.852;2023-05-19T23:08:39;15.90;71.60
42147;DHT22;27815;43.410;11.852;2023-05-19T23:12:42;15.90;71.40
42147;DHT22;27815;43.410;11.852;2023-05-19T23:16:45;15.90;71.20
42147;DHT22;27815;43.410;11.852;2023-05-19T23:20:48;15.90;71.10
42147;DHT22;27815;43.410;11.852;2023-05-19T23:24:51;15.90;71.00
42147;DHT22;27815;43.410;11.852;2023-05-19T23:28:54;15.90;70.90
42147;DHT22;27815;43.410;11.852;2023-05-19T23:32:57;16.00;70.80
42147;DHT22;27815;43.410;11.852;2023-05-19T23:37:00;15.90;70.60
42147;DHT22;27815;43.410;11.852;2023-05-19T23:41:04;16.00;70.50
42147;DHT22;27815;43.410;11.852;2023-05-19T23:45:07;16.00;70.40
42147;DHT22;27815;43.410;11.852;2023-05-19T23:49:10;16.00;70.40
42147;DHT22;27815;43.410;11.852;2023-05-19T23:53:13;15.90;70.50
42147;DHT22;27815;43.410;11.852;2023-05-19T23:57:16;15.90;70.50
